Time;durP1;ratioP1;P1;durP2;ratioP2;P2;SDS_P1;SDS_P2;PMS_P1;PMS_P2;Temp;Humidity;BMP_temperature;BMP_pressure;BME280_temperature;BME280_humidity;BME280_pressure;Samples;Min_cycle;Max_cycle;Signal;HPM_P1;HPM_P2
2024/03/21 00:00:11;;;;;;;5.37;3.40;;;;;;;;;;528459;27;1362;-77
2024/03/21 00:00:26;;;;;;;7.28;3.70;;;;;;;;;;527941;27;1577;-77
2024/03/21 00:00:42;;;;;;;6.10;3.87;;;;;;;;;;527281;28;1407;-77
2024/03/21 00:00:57;;;;;;;5.97;3.77;;;;;;;;;;527590;28;2047;-77
2024/03/21 00:01:12;;;;;;;5.82;3.70;;;;;;;;;;527618;28;1109;-77
2024/03/21 00:01:31;;;;;;;5.13;3.60;;;;;;;;;;527429;28;1493;-77
2024/03/21 00:01:46;;;;;;;5.82;3.50;;;;;;;;;;527307;28;1256;-77
2024/03/21 00:02:01;;;;;;;4.70;3.30;;;;;;;;;;527596;28;1429;-77
2024/03/21 00:02:17;;;;;;;4.00;3.40;;;;;;;;;;523734;28;1201;-77
2024/03/21 00:02:32;;;;;;;4.00;3.40;;;;;;;;;;521043;28;1825;-77
2024/03/21 00:02:47;;;;;;;4.38;3.38;;;;;;;;;;519374;28;1461;-78
2024/03/21 00:03:03;;;;;;;5.40;3.50;;;;;;;;;;518534;28;1291;-78
2024/03/21 00:03:18;;;;;;;5.25;3.65;;;;;;;;;;517370;28;1418;-78
2024/03/21 00:03:34;;;;;;;4.17;3.57;;;;;;;;;;516683;28;1557;-77
2024/03/21 00:03:50;;;;;;;5.18;3.45;;;;;;;;;;518571;28;1389;-78
2024/03/21 00:04:05;;;;;;;5.67;3.37;;;;;;;;;;519163;28;2931;-77
2024/03/21 00:04:20;;;;;;;5.03;3.22;;;;;;;;;;519382;28;1400;-75
2024/03/21 00:04:35;;;;;;;5.10;3.60;;;;;;;;;;518983;28;1397;-75
2024/03/21 00:04:51;;;;;;;5.53;3.63;;;;;;;;;;521631;28;1235;-75
2024/03/21 00:05:11;;;;;;;5.10;3.30;;;;;;;;;;520700;28;1424;-75
2024/03/21 00:05:27;;;;;;;4.30;3.20;;;;;;;;;;523098;28;1342;-75
2024/03/21 00:05:42;;;;;;;5.03;3.10;;;;;;;;;;523372;28;2176;-75
2024/03/21 00:05:57;;;;;;;5.68;3.35;;;;;;;;;;521483;28;1404;-76
2024/03/21 00:06:12;;;;;;;5.30;3.60;;;;;;;;;;520896;28;1350;-75
2024/03/21 00:06:28;;;;;;;4.07;3.43;;;;;;;;;;521353;28;1480;-76
2024/03/21 00:06:43;;;;;;;3.80;3.20;;;;;;;;;;522691;28;1407;-75
2024/03/21 00:07:03;;;;;;;4.60;3.23;;;;;;;;;;521973;28;1444;-75
2024/03/21 00:07:18;;;;;;;5.63;3.50;;;;;;;;;;519826;28;1855;-75
2024/03/21 00:07:33;;;;;;;5.63;3.53;;;;;;;;;;522059;28;1491;-75
2024/03/21 00:07:49;;;;;;;5.40;3.60;;;;;;;;;;522050;28;1513;-75
2024/03/21 00:08:04;;;;;;;5.85;3.53;;;;;;;;;;523371;28;1332;-75
2024/03/21 00:08:20;;;;;;;5.93;3.40;;;;;;;;;;522803;28;1394;-75
2024/03/21 00:08:35;;;;;;;6.53;3.50;;;;;;;;;;521275;28;1413;-75
2024/03/21 00:08:51;;;;;;;5.73;3.47;;;;;;;;;;521265;28;1955;-75
2024/03/21 00:09:09;;;;;;;3.97;3.30;;;;;;;;;;520791;28;1190;-75
2024/03/21 00:09:24;;;;;;;5.60;3.38;;;;;;;;;;521152;28;1456;-74
2024/03/21 00:09:39;;;;;;;6.28;3.40;;;;;;;;;;522144;28;1259;-75
2024/03/21 00:09:54;;;;;;;4.90;3.40;;;;;;;;;;524335;28;1822;-75
2024/03/21 00:10:10;;;;;;;4.77;3.43;;;;;;;;;;525040;28;1389;-75
2024/03/21 00:10:27;;;;;;;5.40;3.40;;;;;;;;;;524485;28;1826;-75
2024/03/21 00:10:42;;;;;;;5.32;3.53;;;;;;;;;;524808;28;1544;-75
2024/03/21 00:10:58;;;;;;;4.73;3.63;;;;;;;;;;524885;28;1415;-75
2024/03/21 00:11:13;;;;;;;5.65;3.60;;;;;;;;;;522542;28;1411;-75
2024/03/21 00:11:29;;;;;;;6.07;3.47;;;;;;;;;;522068;28;1407;-75
2024/03/21 00:11:44;;;;;;;6.93;3.67;;;;;;;;;;521399;28;1431;-75
2024/03/21 00:11:59;;;;;;;6.85;3.80;;;;;;;;;;523334;28;1891;-75
2024/03/21 00:12:14;;;;;;;5.57;3.67;;;;;;;;;;520528;28;1400;-74
2024/03/21 00:12:30;;;;;;;6.60;3.53;;;;;;;;;;520216;28;1413;-74
2024/03/21 00:12:46;;;;;;;7.32;3.60;;;;;;;;;;522659;28;1476;-75
2024/03/21 00:13:01;;;;;;;6.25;3.80;;;;;;;;;;522972;28;1428;-75
2024/03/21 00:13:17;;;;;;;6.40;3.77;;;;;;;;;;524247;28;1087;-75
2024/03/21 00:13:32;;;;;;;6.15;3.80;;;;;;;;;;523382;28;1376;-75
2024/03/21 00:13:47;;;;;;;6.00;3.70;;;;;;;;;;521682;28;2160;-75
2024/03/21 00:14:03;;;;;;;5.57;3.63;;;;;;;;;;524572;28;1391;-74
2024/03/21 00:14:18;;;;;;;5.30;3.60;;;;;;;;;;523253;28;1371;-75
2024/03/21 00:14:35;;;;;;;5.85;3.47;;;;;;;;;;520060;28;1365;-75
2024/03/21 00:14:50;;;;;;;6.07;3.60;;;;;;;;;;520652;28;1468;-75
2024/03/21 00:15:07;;;;;;;6.10;3.77;;;;;;;;;;520513;28;1436;-74
2024/03/21 00:15:22;;;;;;;5.25;3.90;;;;;;;;;;523104;28;2184;-75
2024/03/21 00:15:40;;;;;;;4.30;3.47;;;;;;;;;;522164;28;1547;-75
2024/03/21 00:15:56;;;;;;;4.45;3.40;;;;;;;;;;522306;28;1392;-74
2024/03/21 00:16:12;;;;;;;6.38;3.80;;;;;;;;;;521503;28;1353;-75
2024/03/21 00:16:27;;;;;;;5.82;3.63;;;;;;;;;;521481;28;1325;-75
2024/03/21 00:16:42;;;;;;;4.73;3.33;;;;;;;;;;521854;28;1388;-75
2024/03/21 00:16:58;;;;;;;5.77;3.60;;;;;;;;;;521174;28;1710;-74
2024/03/21 00:17:13;;;;;;;6.57;3.77;;;;;;;;;;521244;28;1339;-75
2024/03/21 00:17:28;;;;;;;7.47;3.83;;;;;;;;;;521629;28;1439;-75
2024/03/21 00:17:44;;;;;;;6.27;3.53;;;;;;;;;;521208;28;1382;-75
2024/03/21 00:18:00;;;;;;;5.38;3.50;;;;;;;;;;520466;28;1341;-74
2024/03/21 00:18:16;;;;;;;6.47;3.88;;;;;;;;;;522313;28;1547;-75
2024/03/21 00:18:33;;;;;;;6.05;3.80;;;;;;;;;;525491;28;1348;-75
2024/03/21 00:18:48;;;;;;;5.70;3.63;;;;;;;;;;524362;28;1407;-75
2024/03/21 00:19:03;;;;;;;5.20;3.50;;;;;;;;;;525467;28;1368;-75
2024/03/21 00:19:18;;;;;;;4.90;3.50;;;;;;;;;;524407;28;1481;-75
2024/03/21 00:19:34;;;;;;;5.07;3.50;;;;;;;;;;522837;28;1388;-75
2024/03/21 00:19:49;;;;;;;4.80;3.30;;;;;;;;;;524615;28;1403;-75
2024/03/21 00:20:10;;;;;;;5.83;3.37;;;;;;;;;;524724;28;1913;-74
2024/03/21 00:20:25;;;;;;;5.75;3.55;;;;;;;;;;524019;28;1332;-75
2024/03/21 00:20:40;;;;;;;5.07;3.60;;;;;;;;;;522667;28;1432;-75
2024/03/21 00:20:56;;;;;;;5.07;3.53;;;;;;;;;;520603;28;1475;-75
2024/03/21 00:21:11;;;;;;;4.40;3.63;;;;;;;;;;520387;28;1370;-75
2024/03/21 00:21:26;;;;;;;4.40;3.53;;;;;;;;;;522413;28;1265;-74
2024/03/21 00:21:41;;;;;;;5.13;3.33;;;;;;;;;;522383;28;1918;-75
2024/03/21 00:21:57;;;;;;;5.83;3.60;;;;;;;;;;521472;28;1411;-75
2024/03/21 00:22:12;;;;;;;5.88;3.60;;;;;;;;;;520370;28;1385;-75
2024/03/21 00:22:27;;;;;;;6.23;3.50;;;;;;;;;;520417;28;1067;-75
2024/03/21 00:22:44;;;;;;;5.43;3.70;;;;;;;;;;522749;28;1361;-74
2024/03/21 00:22:59;;;;;;;5.63;3.70;;;;;;;;;;524645;28;1383;-75
2024/03/21 00:23:14;;;;;;;5.30;3.33;;;;;;;;;;524912;28;1379;-75
2024/03/21 00:23:30;;;;;;;5.00;3.50;;;;;;;;;;523254;28;1285;-75
2024/03/21 00:23:46;;;;;;;6.10;3.70;;;;;;;;;;523716;28;1404;-74
2024/03/21 00:24:01;;;;;;;5.30;3.60;;;;;;;;;;524176;28;1431;-75
2024/03/21 00:24:17;;;;;;;4.90;3.53;;;;;;;;;;524184;28;1191;-74
2024/03/21 00:24:32;;;;;;;5.72;3.70;;;;;;;;;;522413;28;1364;-74
2024/03/21 00:24:48;;;;;;;5.90;3.80;;;;;;;;;;523656;28;1151;-75
2024/03/21 00:25:04;;;;;;;5.55;3.60;;;;;;;;;;522661;28;1677;-75
2024/03/21 00:25:19;;;;;;;5.50;3.50;;;;;;;;;;521819;28;1360;-74
2024/03/21 00:25:35;;;;;;;5.27;3.37;;;;;;;;;;522464;28;1385;-75
2024/03/21 00:25:50;;;;;;;5.57;3.50;;;;;;;;;;522063;28;1424;-75
2024/03/21 00:26:05;;;;;;;6.67;3.73;;;;;;;;;;522610;28;1400;-75
2024/03/21 00:26:20;;;;;;;5.70;3.50;;;;;;;;;;524941;28;1411;-75
2024/03/21 00:26:36;;;;;;;5.60;3.60;;;;;;;;;;524589;28;1830;-74
2024/03/21 00:26:51;;;;;;;6.50;3.90;;;;;;;;;;524870;28;1449;-75
2024/03/21 00:27:06;;;;;;;5.43;3.60;;;;;;;;;;522514;28;1380;-75
2024/03/21 00:27:21;;;;;;;4.53;3.50;;;;;;;;;;522705;28;1399;-74
2024/03/21 00:27:38;;;;;;;4.60;3.53;;;;;;;;;;522180;28;1515;-75
2024/03/21 00:27:53;;;;;;;4.60;3.50;;;;;;;;;;521962;28;1436;-75
2024/03/21 00:28:09;;;;;;;5.37;3.67;;;;;;;;;;521777;28;1952;-75
2024/03/21 00:28:24;;;;;;;6.00;3.80;;;;;;;;;;521712;28;1384;-75
2024/03/21 00:28:41;;;;;;;5.90;3.50;;;;;;;;;;522276;28;1383;-75
2024/03/21 00:28:56;;;;;;;5.88;3.45;;;;;;;;;;523977;28;920;-75
2024/03/21 00:29:12;;;;;;;5.43;3.60;;;;;;;;;;523112;28;1254;-74
2024/03/21 00:29:28;;;;;;;4.90;3.67;;;;;;;;;;523279;28;881;-76
2024/03/21 00:29:43;;;;;;;5.00;3.60;;;;;;;;;;523665;28;1017;-75
2024/03/21 00:29:58;;;;;;;5.07;3.37;;;;;;;;;;523518;28;775;-75
2024/03/21 00:30:13;;;;;;;5.07;3.40;;;;;;;;;;521480;28;1281;-74
2024/03/21 00:30:29;;;;;;;5.47;3.40;;;;;;;;;;521538;28;1194;-74
2024/03/21 00:30:47;;;;;;;6.13;3.47;;;;;;;;;;521374;28;1175;-75
2024/03/21 00:31:03;;;;;;;5.07;3.30;;;;;;;;;;520530;28;1380;-76
2024/03/21 00:31:19;;;;;;;4.80;3.47;;;;;;;;;;521280;28;1236;-75
2024/03/21 00:31:34;;;;;;;5.70;3.63;;;;;;;;;;521422;28;1311;-75
2024/03/21 00:31:51;;;;;;;5.87;3.50;;;;;;;;;;521568;28;1207;-75
2024/03/21 00:32:06;;;;;;;6.13;3.58;;;;;;;;;;522095;28;1497;-75
2024/03/21 00:32:21;;;;;;;5.60;3.50;;;;;;;;;;524400;28;952;-75
2024/03/21 00:32:37;;;;;;;4.88;3.50;;;;;;;;;;523408;28;1154;-75
2024/03/21 00:32:52;;;;;;;5.73;3.60;;;;;;;;;;523467;28;1306;-75
2024/03/21 00:33:07;;;;;;;5.63;3.63;;;;;;;;;;523992;28;1084;-74
2024/03/21 00:33:23;;;;;;;6.07;3.80;;;;;;;;;;525663;28;972;-75
2024/03/21 00:33:38;;;;;;;7.47;3.97;;;;;;;;;;525562;28;1397;-75
2024/03/21 00:33:53;;;;;;;6.53;3.73;;;;;;;;;;525577;28;833;-75
2024/03/21 00:34:10;;;;;;;5.80;3.60;;;;;;;;;;524704;28;1508;-75
2024/03/21 00:34:26;;;;;;;6.10;3.60;;;;;;;;;;525467;28;862;-75
2024/03/21 00:34:42;;;;;;;5.85;3.67;;;;;;;;;;527654;28;861;-75
2024/03/21 00:34:58;;;;;;;5.05;3.78;;;;;;;;;;527558;28;889;-75
2024/03/21 00:35:13;;;;;;;5.13;3.70;;;;;;;;;;526140;28;1050;-75
2024/03/21 00:35:28;;;;;;;5.13;3.67;;;;;;;;;;527336;28;1245;-75
2024/03/21 00:35:43;;;;;;;5.00;3.70;;;;;;;;;;527483;28;1478;-74
2024/03/21 00:35:59;;;;;;;6.07;3.90;;;;;;;;;;525397;28;1233;-75
2024/03/21 00:36:14;;;;;;;5.72;3.88;;;;;;;;;;525390;28;1052;-75
2024/03/21 00:36:29;;;;;;;4.73;3.70;;;;;;;;;;527416;28;1220;-75
2024/03/21 00:36:45;;;;;;;6.53;3.80;;;;;;;;;;527627;28;1195;-75
2024/03/21 00:37:00;;;;;;;8.00;3.92;;;;;;;;;;525723;28;794;-75
2024/03/21 00:37:16;;;;;;;6.87;4.00;;;;;;;;;;523068;28;1293;-75
2024/03/21 00:37:31;;;;;;;5.88;3.72;;;;;;;;;;519354;28;1189;-75
2024/03/21 00:37:46;;;;;;;6.37;3.77;;;;;;;;;;519679;28;806;-74
2024/03/21 00:38:02;;;;;;;6.50;3.60;;;;;;;;;;523037;28;826;-74
2024/03/21 00:38:17;;;;;;;5.40;3.40;;;;;;;;;;523038;28;1062;-75
2024/03/21 00:38:33;;;;;;;5.70;3.63;;;;;;;;;;521498;28;1199;-74
2024/03/21 00:38:48;;;;;;;6.38;3.90;;;;;;;;;;524459;28;916;-75
2024/03/21 00:39:04;;;;;;;6.33;3.77;;;;;;;;;;525445;28;1027;-75
2024/03/21 00:39:19;;;;;;;6.38;3.75;;;;;;;;;;523302;28;1243;-75
2024/03/21 00:39:35;;;;;;;5.77;3.80;;;;;;;;;;525517;28;851;-75
2024/03/21 00:39:53;;;;;;;5.28;3.60;;;;;;;;;;525677;28;1199;-75
2024/03/21 00:40:09;;;;;;;5.10;3.70;;;;;;;;;;525520;28;980;-75
2024/03/21 00:40:25;;;;;;;6.32;3.58;;;;;;;;;;524972;28;1245;-75
2024/03/21 00:40:40;;;;;;;5.97;3.53;;;;;;;;;;525681;28;814;-75
2024/03/21 00:40:55;;;;;;;5.33;3.47;;;;;;;;;;526187;28;1220;-75
2024/03/21 00:41:10;;;;;;;5.10;3.50;;;;;;;;;;525011;28;1196;-75
2024/03/21 00:41:26;;;;;;;5.13;3.80;;;;;;;;;;526997;28;853;-75
2024/03/21 00:41:41;;;;;;;4.63;3.63;;;;;;;;;;527605;28;1922;-75
2024/03/21 00:41:56;;;;;;;5.13;3.67;;;;;;;;;;525595;28;1325;-75
2024/03/21 00:42:12;;;;;;;5.37;3.70;;;;;;;;;;525242;28;1215;-75
2024/03/21 00:42:27;;;;;;;4.75;3.55;;;;;;;;;;524975;28;962;-75
2024/03/21 00:42:42;;;;;;;4.87;3.60;;;;;;;;;;525057;28;1210;-75
2024/03/21 00:42:58;;;;;;;4.80;3.60;;;;;;;;;;521584;28;861;-75
2024/03/21 00:43:13;;;;;;;5.73;3.50;;;;;;;;;;523976;28;977;-75
2024/03/21 00:43:28;;;;;;;5.90;3.50;;;;;;;;;;525949;28;1554;-75
2024/03/21 00:43:44;;;;;;;6.00;3.72;;;;;;;;;;523246;28;1107;-75
2024/03/21 00:43:59;;;;;;;6.80;4.03;;;;;;;;;;523793;28;830;-75
2024/03/21 00:44:15;;;;;;;6.32;3.80;;;;;;;;;;526570;28;1253;-75
2024/03/21 00:44:30;;;;;;;5.40;3.50;;;;;;;;;;525383;28;1608;-75
2024/03/21 00:44:46;;;;;;;6.07;3.83;;;;;;;;;;525412;28;1624;-75
2024/03/21 00:45:02;;;;;;;6.90;3.90;;;;;;;;;;527160;28;1632;-75
2024/03/21 00:45:17;;;;;;;6.15;3.50;;;;;;;;;;527033;28;1256;-75
2024/03/21 00:45:33;;;;;;;7.33;3.60;;;;;;;;;;523462;28;1278;-75
2024/03/21 00:45:48;;;;;;;7.18;3.80;;;;;;;;;;522612;28;1173;-75
2024/03/21 00:46:03;;;;;;;5.67;3.93;;;;;;;;;;521599;28;1295;-75
2024/03/21 00:46:19;;;;;;;5.95;3.88;;;;;;;;;;521540;28;961;-75
2024/03/21 00:46:34;;;;;;;6.23;3.80;;;;;;;;;;523828;28;782;-75
2024/03/21 00:46:49;;;;;;;5.10;3.80;;;;;;;;;;525570;28;818;-74
2024/03/21 00:47:05;;;;;;;4.73;3.90;;;;;;;;;;525086;28;1242;-75
2024/03/21 00:47:20;;;;;;;5.82;3.97;;;;;;;;;;525331;28;1308;-75
2024/03/21 00:47:35;;;;;;;6.57;3.90;;;;;;;;;;527574;28;1143;-75
2024/03/21 00:47:51;;;;;;;7.20;4.00;;;;;;;;;;525489;28;1082;-75
2024/03/21 00:48:06;;;;;;;6.80;3.97;;;;;;;;;;524894;28;1073;-75
2024/03/21 00:48:22;;;;;;;5.33;3.80;;;;;;;;;;524229;28;917;-75
2024/03/21 00:48:37;;;;;;;5.20;3.95;;;;;;;;;;525485;28;909;-75
2024/03/21 00:48:52;;;;;;;5.50;3.90;;;;;;;;;;525599;28;1097;-75
2024/03/21 00:49:11;;;;;;;5.50;3.63;;;;;;;;;;525704;28;1103;-75
2024/03/21 00:49:26;;;;;;;5.38;3.70;;;;;;;;;;525633;28;1007;-75
2024/03/21 00:49:41;;;;;;;5.07;3.90;;;;;;;;;;523930;28;1324;-75
2024/03/21 00:49:57;;;;;;;4.85;3.78;;;;;;;;;;523490;28;1305;-75
2024/03/21 00:50:12;;;;;;;5.50;3.83;;;;;;;;;;524735;28;1067;-75
2024/03/21 00:50:27;;;;;;;6.57;3.93;;;;;;;;;;523150;28;1156;-75
2024/03/21 00:50:43;;;;;;;5.82;3.78;;;;;;;;;;523181;28;1191;-75
2024/03/21 00:50:58;;;;;;;4.60;3.53;;;;;;;;;;521203;28;1220;-75
2024/03/21 00:51:13;;;;;;;4.90;3.57;;;;;;;;;;520967;28;1548;-75
2024/03/21 00:51:31;;;;;;;6.00;3.90;;;;;;;;;;521475;28;841;-75
2024/03/21 00:51:46;;;;;;;6.38;3.90;;;;;;;;;;523456;28;859;-75
2024/03/21 00:52:02;;;;;;;5.97;3.70;;;;;;;;;;523588;28;798;-75
2024/03/21 00:52:17;;;;;;;6.33;3.60;;;;;;;;;;523291;28;1028;-75
2024/03/21 00:52:32;;;;;;;5.47;3.40;;;;;;;;;;525766;28;877;-75
2024/03/21 00:52:48;;;;;;;5.27;3.57;;;;;;;;;;523742;28;1200;-75
2024/03/21 00:53:03;;;;;;;4.95;3.63;;;;;;;;;;525265;28;1254;-75
2024/03/21 00:53:18;;;;;;;4.67;3.70;;;;;;;;;;523828;28;1087;-75
2024/03/21 00:53:34;;;;;;;4.90;3.70;;;;;;;;;;525523;28;956;-75
2024/03/21 00:53:50;;;;;;;5.30;3.72;;;;;;;;;;525439;28;853;-74
2024/03/21 00:54:05;;;;;;;7.03;3.90;;;;;;;;;;523894;28;1312;-75
2024/03/21 00:54:21;;;;;;;6.50;3.60;;;;;;;;;;523531;28;1162;-75
2024/03/21 00:54:37;;;;;;;5.15;3.53;;;;;;;;;;521618;28;940;-75
2024/03/21 00:54:52;;;;;;;6.10;3.80;;;;;;;;;;524000;28;783;-75
2024/03/21 00:55:09;;;;;;;7.47;3.90;;;;;;;;;;525347;28;1048;-75
2024/03/21 00:55:25;;;;;;;7.30;3.88;;;;;;;;;;525559;28;873;-75
2024/03/21 00:55:41;;;;;;;5.90;3.83;;;;;;;;;;525554;28;1404;-74
2024/03/21 00:55:57;;;;;;;5.53;3.80;;;;;;;;;;526362;28;885;-75
2024/03/21 00:56:12;;;;;;;5.55;3.80;;;;;;;;;;526680;28;1198;-75
2024/03/21 00:56:28;;;;;;;5.78;3.80;;;;;;;;;;527584;28;1080;-75
2024/03/21 00:56:43;;;;;;;5.53;3.70;;;;;;;;;;527758;28;1066;-75
2024/03/21 00:56:58;;;;;;;5.70;3.70;;;;;;;;;;527039;28;825;-75
2024/03/21 00:57:14;;;;;;;5.03;3.72;;;;;;;;;;525376;28;821;-74
2024/03/21 00:57:29;;;;;;;5.23;3.60;;;;;;;;;;525803;28;849;-74
2024/03/21 00:57:44;;;;;;;5.40;3.40;;;;;;;;;;525446;28;1250;-79
2024/03/21 00:57:59;;;;;;;5.83;3.50;;;;;;;;;;525726;28;873;-75
2024/03/21 00:58:15;;;;;;;5.60;3.72;;;;;;;;;;526662;28;1142;-75
2024/03/21 00:58:30;;;;;;;5.03;3.80;;;;;;;;;;527314;28;1158;-75
2024/03/21 00:58:45;;;;;;;4.67;3.70;;;;;;;;;;527777;28;838;-75
2024/03/21 00:59:01;;;;;;;4.28;3.42;;;;;;;;;;527696;28;818;-75
2024/03/21 00:59:16;;;;;;;4.87;3.30;;;;;;;;;;525644;28;905;-75
2024/03/21 00:59:31;;;;;;;6.70;3.50;;;;;;;;;;527495;28;834;-75
2024/03/21 00:59:47;;;;;;;6.88;3.38;;;;;;;;;;527426;28;1158;-75
2024/03/21 01:00:03;;;;;;;5.70;3.30;;;;;;;;;;527686;28;821;-75
2024/03/21 01:00:21;;;;;;;6.22;3.42;;;;;;;;;;523740;28;1259;-75
2024/03/21 01:00:36;;;;;;;5.72;3.60;;;;;;;;;;523454;28;1432;-75
2024/03/21 01:00:51;;;;;;;5.30;3.60;;;;;;;;;;523358;28;836;-75
2024/03/21 01:01:07;;;;;;;5.13;3.42;;;;;;;;;;521204;28;1340;-75
2024/03/21 01:01:22;;;;;;;4.97;3.50;;;;;;;;;;519281;28;1165;-75
2024/03/21 01:01:37;;;;;;;4.73;3.50;;;;;;;;;;519800;28;1928;-74
2024/03/21 01:01:54;;;;;;;4.32;3.58;;;;;;;;;;521427;28;931;-75
2024/03/21 01:02:09;;;;;;;4.63;3.53;;;;;;;;;;519805;28;1374;-75
2024/03/21 01:02:24;;;;;;;4.87;3.30;;;;;;;;;;520477;28;1238;-74
2024/03/21 01:02:40;;;;;;;5.53;3.40;;;;;;;;;;520466;28;1097;-75
2024/03/21 01:02:57;;;;;;;4.82;3.35;;;;;;;;;;520987;28;1075;-74
2024/03/21 01:03:12;;;;;;;4.80;3.47;;;;;;;;;;520845;28;1123;-75
2024/03/21 01:03:29;;;;;;;5.57;3.70;;;;;;;;;;523579;28;874;-74
2024/03/21 01:03:44;;;;;;;5.00;3.60;;;;;;;;;;525483;28;913;-75
2024/03/21 01:03:59;;;;;;;5.30;3.57;;;;;;;;;;523915;28;1294;-74
2024/03/21 01:04:15;;;;;;;5.75;3.50;;;;;;;;;;524091;28;1242;-74
2024/03/21 01:04:30;;;;;;;5.53;3.47;;;;;;;;;;522936;28;1163;-75
2024/03/21 01:04:50;;;;;;;6.03;3.50;;;;;;;;;;523967;28;1456;-75
2024/03/21 01:05:06;;;;;;;5.60;3.70;;;;;;;;;;523446;28;822;-74
2024/03/21 01:05:22;;;;;;;6.30;3.88;;;;;;;;;;524205;28;845;-75
2024/03/21 01:05:37;;;;;;;7.77;3.80;;;;;;;;;;525537;28;882;-74
2024/03/21 01:05:55;;;;;;;8.63;3.83;;;;;;;;;;524920;28;2193;-74
2024/03/21 01:06:10;;;;;;;6.82;3.70;;;;;;;;;;525562;28;2220;-75
2024/03/21 01:06:26;;;;;;;5.70;3.63;;;;;;;;;;525868;28;1901;-75
2024/03/21 01:06:41;;;;;;;4.80;3.40;;;;;;;;;;525766;28;794;-75
2024/03/21 01:06:57;;;;;;;4.50;3.30;;;;;;;;;;525589;28;1475;-75
2024/03/21 01:07:13;;;;;;;4.53;3.20;;;;;;;;;;523448;28;1209;-74
2024/03/21 01:07:28;;;;;;;5.53;3.40;;;;;;;;;;523108;28;1650;-75
2024/03/21 01:07:46;;;;;;;6.30;3.60;;;;;;;;;;525063;28;1811;-74
2024/03/21 01:08:02;;;;;;;6.95;3.65;;;;;;;;;;525344;28;1859;-75
2024/03/21 01:08:18;;;;;;;4.93;3.47;;;;;;;;;;523713;28;1142;-75
2024/03/21 01:08:33;;;;;;;5.60;3.70;;;;;;;;;;525354;28;826;-75
2024/03/21 01:08:48;;;;;;;6.20;3.90;;;;;;;;;;525521;28;869;-75
2024/03/21 01:09:04;;;;;;;5.40;3.65;;;;;;;;;;526040;28;1063;-75
2024/03/21 01:09:19;;;;;;;6.13;3.50;;;;;;;;;;525895;28;818;-75
2024/03/21 01:09:35;;;;;;;7.13;3.60;;;;;;;;;;526780;28;833;-75
2024/03/21 01:09:50;;;;;;;6.77;3.70;;;;;;;;;;525401;28;813;-75
2024/03/21 01:10:06;;;;;;;6.07;3.40;;;;;;;;;;525735;28;1094;-74
2024/03/21 01:10:21;;;;;;;5.18;3.17;;;;;;;;;;526234;28;1202;-75
2024/03/21 01:10:36;;;;;;;5.00;3.37;;;;;;;;;;527535;28;975;-75
2024/03/21 01:10:52;;;;;;;5.03;3.35;;;;;;;;;;527773;28;908;-75
2024/03/21 01:11:07;;;;;;;5.30;3.37;;;;;;;;;;527072;28;1115;-75
2024/03/21 01:11:23;;;;;;;5.10;3.40;;;;;;;;;;524833;28;1365;-74
2024/03/21 01:11:39;;;;;;;5.10;3.40;;;;;;;;;;523216;28;1163;-75
2024/03/21 01:11:57;;;;;;;5.45;3.47;;;;;;;;;;525270;28;1099;-74
2024/03/21 01:12:13;;;;;;;5.40;3.50;;;;;;;;;;522670;28;1424;-74
2024/03/21 01:12:28;;;;;;;5.43;3.50;;;;;;;;;;521288;28;1199;-75
2024/03/21 01:12:44;;;;;;;5.13;3.42;;;;;;;;;;521482;28;964;-75
2024/03/21 01:13:00;;;;;;;5.20;3.40;;;;;;;;;;520611;28;953;-75
2024/03/21 01:13:15;;;;;;;5.23;3.37;;;;;;;;;;522093;28;1140;-75
2024/03/21 01:13:31;;;;;;;4.97;3.30;;;;;;;;;;522430;28;830;-74
2024/03/21 01:13:46;;;;;;;4.93;3.50;;;;;;;;;;523113;28;1304;-75
2024/03/21 01:14:01;;;;;;;5.13;3.57;;;;;;;;;;523572;28;809;-75
2024/03/21 01:14:17;;;;;;;4.30;3.17;;;;;;;;;;523504;28;1194;-75
2024/03/21 01:14:32;;;;;;;3.63;3.10;;;;;;;;;;523110;28;1141;-75
2024/03/21 01:14:47;;;;;;;5.20;3.40;;;;;;;;;;523528;28;869;-74
2024/03/21 01:15:03;;;;;;;6.93;3.65;;;;;;;;;;523279;28;1231;-75
2024/03/21 01:15:18;;;;;;;6.97;3.60;;;;;;;;;;525279;28;1005;-74
2024/03/21 01:15:34;;;;;;;6.18;3.70;;;;;;;;;;523431;28;1218;-74
2024/03/21 01:15:49;;;;;;;5.87;3.80;;;;;;;;;;523047;28;1163;-75
2024/03/21 01:16:08;;;;;;;5.10;3.70;;;;;;;;;;521334;28;1304;-74
2024/03/21 01:16:23;;;;;;;4.75;3.85;;;;;;;;;;521995;28;1286;-75
2024/03/21 01:16:38;;;;;;;5.93;3.97;;;;;;;;;;523270;28;862;-75
2024/03/21 01:16:54;;;;;;;5.20;3.80;;;;;;;;;;521361;28;1156;-74
2024/03/21 01:17:09;;;;;;;4.33;3.53;;;;;;;;;;518391;28;1262;-74
2024/03/21 01:17:24;;;;;;;5.63;3.50;;;;;;;;;;518495;28;1361;-75
2024/03/21 01:17:39;;;;;;;6.15;3.63;;;;;;;;;;519310;28;835;-75
2024/03/21 01:17:56;;;;;;;5.33;3.50;;;;;;;;;;519834;28;831;-75
2024/03/21 01:18:13;;;;;;;4.38;3.40;;;;;;;;;;518291;28;1370;-74
2024/03/21 01:18:37;;;;;;;4.78;3.70;;;;;;;;;;520945;28;854;-74
2024/03/21 01:18:53;;;;;;;5.80;3.80;;;;;;;;;;521997;28;1383;-74
2024/03/21 01:19:08;;;;;;;5.20;3.67;;;;;;;;;;524023;28;1006;-75
2024/03/21 01:19:24;;;;;;;5.70;3.57;;;;;;;;;;526312;28;956;-74
2024/03/21 01:19:40;;;;;;;5.57;3.50;;;;;;;;;;526988;28;1489;-76
2024/03/21 01:19:56;;;;;;;5.25;3.78;;;;;;;;;;527479;28;941;-74
2024/03/21 01:20:11;;;;;;;4.67;3.87;;;;;;;;;;527974;27;896;-75
2024/03/21 01:20:26;;;;;;;4.97;3.60;;;;;;;;;;529188;28;850;-75
2024/03/21 01:20:42;;;;;;;5.23;3.60;;;;;;;;;;527261;28;1238;-75
2024/03/21 01:20:57;;;;;;;5.70;3.60;;;;;;;;;;525406;28;973;-75
2024/03/21 01:21:15;;;;;;;6.77;3.60;;;;;;;;;;524717;28;1443;-75
2024/03/21 01:21:30;;;;;;;5.10;3.50;;;;;;;;;;525394;28;976;-75
2024/03/21 01:21:45;;;;;;;5.10;3.67;;;;;;;;;;523375;28;1916;-74
2024/03/21 01:22:01;;;;;;;5.53;3.70;;;;;;;;;;523137;28;902;-74
2024/03/21 01:22:16;;;;;;;6.40;3.57;;;;;;;;;;523175;28;1106;-75
2024/03/21 01:22:31;;;;;;;6.20;3.50;;;;;;;;;;521862;28;1449;-75
2024/03/21 01:22:47;;;;;;;4.45;3.60;;;;;;;;;;521363;28;1329;-74
2024/03/21 01:23:03;;;;;;;3.95;3.42;;;;;;;;;;521783;28;996;-75
2024/03/21 01:23:18;;;;;;;6.10;3.47;;;;;;;;;;523603;28;1229;-75
2024/03/21 01:23:34;;;;;;;7.35;3.60;;;;;;;;;;525538;28;1186;-75
2024/03/21 01:23:50;;;;;;;5.40;3.47;;;;;;;;;;525490;28;1503;-75
2024/03/21 01:24:05;;;;;;;4.63;3.43;;;;;;;;;;525349;28;1107;-74
2024/03/21 01:24:20;;;;;;;5.93;3.60;;;;;;;;;;525114;28;1049;-74
2024/03/21 01:24:37;;;;;;;5.93;3.60;;;;;;;;;;525310;28;957;-75
2024/03/21 01:24:53;;;;;;;5.00;3.58;;;;;;;;;;525433;28;869;-75
2024/03/21 01:25:09;;;;;;;5.50;3.67;;;;;;;;;;523282;28;1238;-75
2024/03/21 01:25:25;;;;;;;5.00;3.50;;;;;;;;;;523409;28;993;-75
2024/03/21 01:25:40;;;;;;;6.45;3.67;;;;;;;;;;524118;28;842;-75
2024/03/21 01:25:56;;;;;;;7.43;3.93;;;;;;;;;;525564;28;980;-75
2024/03/21 01:26:11;;;;;;;6.43;3.63;;;;;;;;;;521707;28;1325;-74
2024/03/21 01:26:26;;;;;;;6.53;3.60;;;;;;;;;;523305;28;1264;-75
2024/03/21 01:26:42;;;;;;;6.03;3.70;;;;;;;;;;523277;28;838;-75
2024/03/21 01:26:57;;;;;;;6.20;3.57;;;;;;;;;;523153;28;1303;-75
2024/03/21 01:27:12;;;;;;;5.47;3.50;;;;;;;;;;523281;28;1159;-75
2024/03/21 01:27:27;;;;;;;4.63;3.57;;;;;;;;;;523380;28;806;-75
2024/03/21 01:27:43;;;;;;;4.60;3.60;;;;;;;;;;521173;28;1482;-75
2024/03/21 01:28:00;;;;;;;5.43;3.50;;;;;;;;;;521518;28;965;-75
2024/03/21 01:28:15;;;;;;;5.32;3.70;;;;;;;;;;522944;28;1275;-75
2024/03/21 01:28:31;;;;;;;4.22;3.60;;;;;;;;;;523200;28;889;-74
2024/03/21 01:28:46;;;;;;;5.83;3.50;;;;;;;;;;523765;28;1057;-74
2024/03/21 01:29:01;;;;;;;6.17;3.53;;;;;;;;;;525933;28;849;-74
2024/03/21 01:29:16;;;;;;;5.57;3.50;;;;;;;;;;525153;28;1181;-74
2024/03/21 01:29:33;;;;;;;6.23;3.50;;;;;;;;;;523506;28;806;-75
2024/03/21 01:29:48;;;;;;;6.47;3.50;;;;;;;;;;523320;28;1437;-75
2024/03/21 01:30:04;;;;;;;5.23;3.60;;;;;;;;;;523651;28;1083;-75
2024/03/21 01:30:19;;;;;;;4.00;3.50;;;;;;;;;;524550;28;953;-75
2024/03/21 01:30:35;;;;;;;4.00;3.40;;;;;;;;;;523507;28;845;-76
2024/03/21 01:30:50;;;;;;;4.50;3.47;;;;;;;;;;523531;28;945;-75
2024/03/21 01:31:14;;;;;;;4.63;3.53;;;;;;;;;;523576;28;1402;-75
2024/03/21 01:31:30;;;;;;;6.72;3.60;;;;;;;;;;526289;28;995;-75
2024/03/21 01:31:45;;;;;;;5.67;3.50;;;;;;;;;;525555;28;882;-75
2024/03/21 01:32:00;;;;;;;4.97;3.55;;;;;;;;;;525610;28;1255;-74
2024/03/21 01:32:16;;;;;;;5.00;3.67;;;;;;;;;;524997;28;1236;-75
2024/03/21 01:32:31;;;;;;;4.30;3.70;;;;;;;;;;523248;28;1314;-75
2024/03/21 01:32:46;;;;;;;4.63;3.70;;;;;;;;;;523316;28;1105;-75
2024/03/21 01:33:03;;;;;;;4.90;3.47;;;;;;;;;;522123;28;810;-75
2024/03/21 01:33:18;;;;;;;4.57;3.60;;;;;;;;;;521206;28;909;-75
2024/03/21 01:33:33;;;;;;;4.63;3.67;;;;;;;;;;521830;28;2777;-75
2024/03/21 01:33:49;;;;;;;4.40;3.30;;;;;;;;;;523412;28;1968;-75
2024/03/21 01:34:05;;;;;;;4.70;3.50;;;;;;;;;;524364;28;2225;-75
2024/03/21 01:34:20;;;;;;;4.90;3.60;;;;;;;;;;525085;28;947;-75
2024/03/21 01:34:36;;;;;;;5.17;3.60;;;;;;;;;;525707;28;1402;-74
2024/03/21 01:34:51;;;;;;;4.87;3.60;;;;;;;;;;526353;28;837;-75
2024/03/21 01:35:07;;;;;;;4.72;3.70;;;;;;;;;;527673;28;1055;-75
2024/03/21 01:35:22;;;;;;;4.40;3.65;;;;;;;;;;526694;28;939;-75
2024/03/21 01:35:38;;;;;;;4.03;3.57;;;;;;;;;;526852;28;2245;-75
2024/03/21 01:35:53;;;;;;;4.57;3.73;;;;;;;;;;526539;28;1007;-75
2024/03/21 01:36:12;;;;;;;5.68;3.72;;;;;;;;;;527334;28;783;-75
2024/03/21 01:36:29;;;;;;;6.72;3.80;;;;;;;;;;527551;28;1247;-75
2024/03/21 01:36:46;;;;;;;6.10;3.80;;;;;;;;;;527517;28;1504;-75
2024/03/21 01:37:02;;;;;;;4.75;3.50;;;;;;;;;;527582;28;861;-75
2024/03/21 01:37:18;;;;;;;5.53;3.50;;;;;;;;;;523652;28;1179;-75
2024/03/21 01:37:33;;;;;;;4.93;3.50;;;;;;;;;;525552;28;929;-75